Time;durP1;ratioP1;P1;durP2;ratioP2;P2;SDS_P1;SDS_P2;PMS_P1;PMS_P2;Temp;Humidity;BMP_temperature;BMP_pressure;BME280_temperature;BME280_humidity;BME280_pressure;Samples;Min_cycle;Max_cycle;Signal;HPM_P1;HPM_P2
2022/02/27 00:02:04;;;;;;;5.70;2.22;;;9.30;84.10;;;;;;5057364;28;20497;-61
2022/02/27 00:04:30;;;;;;;6.68;2.17;;;9.30;84.00;;;;;;5058485;28;20025;-61
2022/02/27 00:06:56;;;;;;;9.52;1.83;;;9.30;84.10;;;;;;5059187;28;20020;-61
2022/02/27 00:09:21;;;;;;;9.15;2.30;;;9.30;84.20;;;;;;5062792;28;20050;-61
2022/02/27 00:11:50;;;;;;;6.38;2.10;;;9.30;84.20;;;;;;5060782;28;20024;-61
2022/02/27 00:14:16;;;;;;;4.20;1.75;;;9.30;84.00;;;;;;5056721;28;20385;-60
2022/02/27 00:16:42;;;;;;;6.95;1.83;;;9.30;84.30;;;;;;5058682;28;20033;-61
2022/02/27 00:19:07;;;;;;;8.45;1.92;;;9.30;84.20;;;;;;5047975;28;20548;-61
2022/02/27 00:21:33;;;;;;;9.65;1.98;;;9.30;84.10;;;;;;5036143;28;20899;-61
2022/02/27 00:23:59;;;;;;;12.25;1.92;;;9.20;84.30;;;;;;5060416;28;20480;-61
2022/02/27 00:26:24;;;;;;;5.32;1.85;;;9.20;84.30;;;;;;5065983;28;20040;-61
2022/02/27 00:28:50;;;;;;;4.90;1.90;;;9.20;84.30;;;;;;5062407;28;20021;-61
2022/02/27 00:31:15;;;;;;;7.00;2.20;;;9.20;84.30;;;;;;5065944;28;20051;-60
2022/02/27 00:37:06;;;;;;;8.15;2.05;;;9.30;84.30;;;;;;5053720;28;20386;-61
2022/02/27 01:10:15;;;;;;;2.88;1.60;;;9.20;84.50;;;;;;5014062;28;20139;-61
2022/02/27 01:12:41;;;;;;;8.70;2.10;;;9.20;84.60;;;;;;5062222;28;20059;-61
2022/02/27 01:15:08;;;;;;;9.85;2.22;;;9.20;84.70;;;;;;5058274;28;20021;-61
2022/02/27 01:17:34;;;;;;;4.10;1.70;;;9.20;84.70;;;;;;5040959;28;20079;-60
2022/02/27 01:19:59;;;;;;;11.57;2.47;;;9.20;85.40;;;;;;5056083;28;20044;-60
2022/02/27 01:22:25;;;;;;;8.32;2.20;;;9.20;84.70;;;;;;5039919;28;20559;-61
2022/02/27 01:24:54;;;;;;;4.40;1.90;;;9.20;84.70;;;;;;5058682;28;20053;-60
2022/02/27 01:27:19;;;;;;;10.13;2.50;;;9.20;84.70;;;;;;5042450;28;20119;-60
2022/02/27 01:29:48;;;;;;;4.30;2.03;;;9.10;84.90;;;;;;5057202;28;20108;-61
2022/02/27 02:07:29;;;;;;;9.50;2.50;;;9.10;84.70;;;;;;4993957;28;20121;-60
2022/02/27 04:54:27;;;;;;;6.32;1.90;;;9.00;85.80;;;;;;4952770;28;20370;-61
2022/02/27 05:56:29;;;;;;;11.77;2.60;;;8.90;86.40;;;;;;5012525;28;20041;-60
2022/02/27 05:58:55;;;;;;;9.30;2.55;;;8.90;86.40;;;;;;5014239;28;20037;-60
2022/02/27 06:01:21;;;;;;;4.18;2.28;;;8.90;86.40;;;;;;5024155;28;20379;-60
2022/02/27 06:03:46;;;;;;;5.43;2.55;;;8.90;86.30;;;;;;5027903;28;20032;-60
2022/02/27 06:06:12;;;;;;;10.35;3.42;;;9.00;86.30;;;;;;5010197;28;20306;-60
2022/02/27 06:08:38;;;;;;;6.40;3.03;;;9.00;86.30;;;;;;5011728;28;20029;-60
2022/02/27 06:11:03;;;;;;;5.22;2.85;;;9.00;86.20;;;;;;5026536;28;20052;-60
2022/02/27 06:13:29;;;;;;;12.27;4.18;;;8.90;86.20;;;;;;5017164;28;20034;-60
2022/02/27 06:15:55;;;;;;;6.72;3.35;;;9.00;86.20;;;;;;5008736;28;20025;-60
2022/02/27 06:18:20;;;;;;;7.55;3.38;;;9.00;86.30;;;;;;5041719;28;20059;-60
2022/02/27 06:20:46;;;;;;;7.45;2.95;;;9.00;86.30;;;;;;5020478;28;20096;-60
2022/02/27 06:23:12;;;;;;;8.27;3.63;;;8.90;86.30;;;;;;5024987;28;20025;-60
2022/02/27 06:25:38;;;;;;;9.95;4.10;;;9.00;86.30;;;;;;5031632;28;20478;-60
2022/02/27 06:28:04;;;;;;;9.38;4.25;;;9.00;86.00;;;;;;5016998;28;20033;-60
2022/02/27 06:30:30;;;;;;;8.45;3.85;;;9.00;86.10;;;;;;5011692;28;20022;-60
2022/02/27 06:32:56;;;;;;;7.60;4.13;;;9.00;86.20;;;;;;5036383;28;20446;-60
2022/02/27 06:35:24;;;;;;;8.70;4.15;;;9.00;86.20;;;;;;5030424;28;20545;-60
2022/02/27 06:37:52;;;;;;;6.03;3.55;;;9.00;86.10;;;;;;5009602;28;20022;-60
2022/02/27 06:40:18;;;;;;;8.40;4.05;;;9.00;86.20;;;;;;5011200;28;20048;-60
2022/02/27 06:42:45;;;;;;;7.80;3.63;;;9.00;86.10;;;;;;5040917;28;20108;-60
2022/02/27 06:45:12;;;;;;;18.23;4.72;;;9.00;86.30;;;;;;5048745;28;20053;-60
2022/02/27 06:47:38;;;;;;;9.05;3.83;;;9.00;86.30;;;;;;5037084;28;20069;-60
2022/02/27 06:50:05;;;;;;;10.07;4.28;;;9.10;86.00;;;;;;5015576;28;20033;-61
2022/02/27 06:52:31;;;;;;;14.65;3.88;;;9.10;86.30;;;;;;5035600;28;20036;-60
2022/02/27 06:54:57;;;;;;;11.63;3.72;;;9.10;86.20;;;;;;5040973;28;20017;-60
2022/02/27 06:57:22;;;;;;;9.88;4.07;;;9.10;86.30;;;;;;5026023;28;20513;-60
2022/02/27 06:59:48;;;;;;;9.55;4.13;;;9.10;86.40;;;;;;5047530;28;20355;-61
2022/02/27 07:02:14;;;;;;;7.45;3.70;;;9.10;86.60;;;;;;5043866;28;20060;-61
2022/02/27 07:04:40;;;;;;;7.03;3.38;;;9.00;86.60;;;;;;5044313;28;20708;-60
2022/02/27 07:07:06;;;;;;;8.18;3.65;;;9.00;86.50;;;;;;5028633;28;20124;-60
2022/02/27 07:09:32;;;;;;;10.55;3.55;;;9.00;86.60;;;;;;5021724;28;20479;-60
2022/02/27 07:11:58;;;;;;;10.80;3.50;;;9.00;86.40;;;;;;5018523;28;20037;-61
2022/02/27 07:14:23;;;;;;;11.95;3.28;;;9.10;86.40;;;;;;5030846;28;20025;-60
2022/02/27 07:16:49;;;;;;;6.55;3.47;;;9.10;86.30;;;;;;5031616;28;20025;-60
2022/02/27 07:19:16;;;;;;;9.38;4.20;;;9.10;86.40;;;;;;5031017;28;20689;-60
2022/02/27 07:21:41;;;;;;;7.00;3.38;;;9.10;86.40;;;;;;5032232;28;20525;-60
2022/02/27 07:24:07;;;;;;;6.85;3.45;;;9.10;86.60;;;;;;5014813;28;20091;-60
2022/02/27 07:26:33;;;;;;;12.60;3.92;;;9.20;86.50;;;;;;5031533;28;20033;-60
2022/02/27 07:28:58;;;;;;;10.07;3.80;;;9.20;86.30;;;;;;5035509;28;20039;-60
2022/02/27 07:31:24;;;;;;;6.68;3.42;;;9.20;86.10;;;;;;5026157;28;20451;-60
2022/02/27 07:33:51;;;;;;;9.93;2.95;;;9.20;86.10;;;;;;5032059;28;20029;-60
2022/02/27 07:36:17;;;;;;;9.13;3.55;;;9.30;85.70;;;;;;5013800;28;20402;-60
2022/02/27 07:38:43;;;;;;;8.52;3.75;;;9.40;85.50;;;;;;5027516;28;20049;-60
2022/02/27 07:41:08;;;;;;;9.73;3.45;;;9.40;85.10;;;;;;5030497;28;20091;-60
2022/02/27 07:43:34;;;;;;;14.30;4.22;;;9.50;84.90;;;;;;5031824;28;20056;-60
2022/02/27 07:46:00;;;;;;;9.93;4.30;;;9.70;84.70;;;;;;5026711;28;20037;-60
2022/02/27 07:48:26;;;;;;;12.77;4.70;;;9.70;84.50;;;;;;5023067;28;20117;-60
2022/02/27 07:50:51;;;;;;;10.25;4.28;;;9.70;84.30;;;;;;5020162;28;20079;-61
2022/02/27 07:53:17;;;;;;;14.35;4.05;;;9.80;84.10;;;;;;5015309;28;20112;-61
2022/02/27 07:55:43;;;;;;;9.65;4.43;;;9.80;84.20;;;;;;5024496;28;20037;-60
2022/02/27 07:58:11;;;;;;;10.43;4.05;;;9.80;84.20;;;;;;5021743;28;20033;-60
2022/02/27 08:00:36;;;;;;;10.48;4.15;;;9.80;84.10;;;;;;5027487;28;20084;-60
2022/02/27 08:03:02;;;;;;;12.80;4.50;;;9.90;84.00;;;;;;5024020;28;20053;-60
2022/02/27 08:05:28;;;;;;;6.47;3.08;;;9.90;83.90;;;;;;5027325;28;20083;-60
2022/02/27 08:07:56;;;;;;;7.95;3.65;;;9.90;83.70;;;;;;5016972;28;20025;-60
2022/02/27 08:10:22;;;;;;;13.02;4.68;;;9.90;83.40;;;;;;5028432;28;20689;-60
2022/02/27 08:12:47;;;;;;;8.68;4.50;;;9.90;83.70;;;;;;5020715;28;20040;-60
2022/02/27 08:15:14;;;;;;;11.93;5.28;;;10.00;83.60;;;;;;5022155;28;20433;-60
2022/02/27 08:17:40;;;;;;;14.68;4.68;;;10.00;83.70;;;;;;5021768;28;20029;-60
2022/02/27 08:20:06;;;;;;;10.88;5.40;;;10.00;83.80;;;;;;5023292;28;20121;-60
2022/02/27 08:22:32;;;;;;;6.25;3.20;;;10.00;83.80;;;;;;5017226;28;20113;-60
2022/02/27 08:24:58;;;;;;;15.25;5.30;;;10.00;83.80;;;;;;5005036;28;20032;-61
2022/02/27 08:27:23;;;;;;;12.25;4.82;;;10.00;84.20;;;;;;5016394;28;20056;-60
2022/02/27 08:29:51;;;;;;;12.07;4.60;;;10.00;84.10;;;;;;5026055;28;20828;-60
2022/02/27 08:32:17;;;;;;;12.20;4.55;;;10.10;84.30;;;;;;5019801;28;20025;-60
2022/02/27 08:34:42;;;;;;;13.60;5.72;;;10.10;84.70;;;;;;5027362;28;20060;-60
2022/02/27 08:37:08;;;;;;;13.15;5.10;;;10.10;85.50;;;;;;5011168;28;20032;-60
2022/02/27 08:39:34;;;;;;;12.05;5.90;;;10.10;85.20;;;;;;5024187;28;20081;-60
2022/02/27 08:42:01;;;;;;;9.68;4.53;;;10.10;85.00;;;;;;5009332;28;20067;-60
2022/02/27 08:44:28;;;;;;;12.20;4.82;;;10.00;85.30;;;;;;5023663;28;20037;-60
2022/02/27 08:46:54;;;;;;;12.82;4.85;;;10.00;85.60;;;;;;5029732;28;20071;-60
2022/02/27 08:49:20;;;;;;;18.00;5.50;;;10.10;85.20;;;;;;5031367;28;20147;-61
2022/02/27 08:51:47;;;;;;;11.02;4.75;;;10.10;84.60;;;;;;5031683;28;20250;-60
2022/02/27 08:54:13;;;;;;;15.57;4.88;;;10.10;85.70;;;;;;5033932;28;20017;-60
2022/02/27 08:56:39;;;;;;;9.95;5.47;;;10.10;85.70;;;;;;5028843;28;20017;-60
2022/02/27 08:59:04;;;;;;;13.07;5.32;;;10.10;84.50;;;;;;5032590;28;20024;-60
2022/02/27 09:01:30;;;;;;;8.15;4.93;;;10.10;85.20;;;;;;5029235;28;20041;-60
2022/02/27 09:03:56;;;;;;;17.10;6.32;;;10.10;85.10;;;;;;5032613;28;20191;-60
2022/02/27 09:06:21;;;;;;;22.63;6.38;;;10.10;86.50;;;;;;5032664;28;20029;-60
2022/02/27 09:08:47;;;;;;;9.90;5.13;;;10.10;85.60;;;;;;5028339;28;20421;-60
2022/02/27 09:11:13;;;;;;;15.73;4.95;;;10.10;86.10;;;;;;5029159;28;20696;-60
2022/02/27 09:13:39;;;;;;;9.50;4.90;;;10.10;86.60;;;;;;5026186;28;20144;-60
2022/02/27 09:16:05;;;;;;;10.70;4.93;;;10.00;86.40;;;;;;5030260;28;20127;-60
2022/02/27 09:18:31;;;;;;;18.92;6.20;;;10.10;86.60;;;;;;5036841;28;20017;-60
2022/02/27 09:20:57;;;;;;;12.05;4.95;;;10.00;88.50;;;;;;5039489;28;20037;-60
2022/02/27 09:23:22;;;;;;;11.55;4.65;;;10.00;85.90;;;;;;5046659;28;20033;-60
2022/02/27 09:25:48;;;;;;;19.77;5.40;;;10.00;86.80;;;;;;5036465;28;20033;-60
2022/02/27 09:28:14;;;;;;;13.43;5.38;;;10.10;85.20;;;;;;5042067;28;20033;-60
2022/02/27 09:30:39;;;;;;;11.25;4.72;;;10.10;85.40;;;;;;5015633;28;20022;-60
2022/02/27 09:33:11;;;;;;;9.05;5.25;;;10.10;85.80;;;;;;5012723;28;20025;-60
2022/02/27 09:35:55;;;;;;;12.95;5.18;;;10.20;89.30;;;;;;5012517;28;20026;-59
2022/02/27 09:38:21;;;;;;;14.13;6.10;;;10.20;87.30;;;;;;5023110;28;20022;-60
2022/02/27 09:40:51;;;;;;;10.98;5.53;;;10.20;87.50;;;;;;5036984;28;20030;-60
2022/02/27 09:43:18;;;;;;;9.07;4.38;;;10.30;87.60;;;;;;5026138;28;20517;-60
2022/02/27 09:45:46;;;;;;;15.73;4.68;;;10.30;87.10;;;;;;5028915;28;20029;-60
2022/02/27 09:48:12;;;;;;;6.97;3.60;;;10.30;87.50;;;;;;5031601;28;20029;-60
2022/02/27 09:50:40;;;;;;;13.35;4.55;;;10.20;87.30;;;;;;5033499;28;20040;-60
2022/02/27 09:53:09;;;;;;;11.98;4.22;;;10.20;87.60;;;;;;5034437;28;20095;-60
2022/02/27 09:55:38;;;;;;;4.88;2.92;;;10.20;86.60;;;;;;5041789;28;20051;-60
2022/02/27 09:58:04;;;;;;;6.97;4.10;;;10.30;86.10;;;;;;5032771;28;20041;-61
2022/02/27 10:00:30;;;;;;;8.18;3.53;;;10.30;87.20;;;;;;5032445;28;20126;-60
2022/02/27 10:03:11;;;;;;;8.35;2.72;;;10.30;87.00;;;;;;5029846;28;20490;-60
2022/02/27 10:05:46;;;;;;;9.98;4.18;;;10.20;87.80;;;;;;5032507;28;20510;-59
2022/02/27 10:08:13;;;;;;;6.18;3.90;;;10.20;86.10;;;;;;5033394;28;20417;-60
2022/02/27 10:10:52;;;;;;;9.73;4.25;;;10.30;86.80;;;;;;5033781;28;20032;-59
2022/02/27 10:13:42;;;;;;;7.50;3.30;;;10.30;85.40;;;;;;5009293;28;20034;-59
2022/02/27 10:16:13;;;;;;;7.28;3.13;;;10.40;85.40;;;;;;5008458;28;20087;-59
2022/02/27 10:18:41;;;;;;;7.47;3.53;;;10.40;86.30;;;;;;5008850;28;20046;-60
2022/02/27 10:21:19;;;;;;;6.18;3.08;;;10.40;86.80;;;;;;5027958;28;20029;-59
2022/02/27 10:24:03;;;;;;;5.38;3.30;;;10.40;85.70;;;;;;5030928;28;20532;-59
2022/02/27 10:26:29;;;;;;;7.10;3.03;;;10.50;84.50;;;;;;5031845;28;20053;-59
2022/02/27 10:29:14;;;;;;;12.65;4.03;;;10.50;85.40;;;;;;5034274;28;20044;-60
2022/02/27 10:31:43;;;;;;;7.57;2.90;;;10.50;84.70;;;;;;5051333;28;20790;-59
2022/02/27 10:34:16;;;;;;;7.15;2.92;;;10.50;85.80;;;;;;5051439;28;20025;-59
2022/02/27 10:37:04;;;;;;;8.60;2.63;;;10.50;84.10;;;;;;5051668;28;20025;-60
2022/02/27 10:39:41;;;;;;;7.13;2.75;;;10.50;84.90;;;;;;5051988;28;20020;-59
2022/02/27 10:42:17;;;;;;;9.00;2.75;;;10.50;84.80;;;;;;5050874;28;20032;-60
2022/02/27 10:45:04;;;;;;;5.13;2.67;;;10.50;84.70;;;;;;5040916;28;20021;-60
2022/02/27 10:47:35;;;;;;;6.80;3.42;;;10.50;84.80;;;;;;5038231;28;20032;-59
2022/02/27 10:50:08;;;;;;;7.75;3.22;;;10.60;85.20;;;;;;5031329;28;20029;-60
2022/02/27 10:52:34;;;;;;;3.63;2.40;;;10.60;83.50;;;;;;5040876;28;20413;-59
2022/02/27 10:55:07;;;;;;;3.97;2.63;;;10.60;82.10;;;;;;5049115;28;20035;-60
2022/02/27 11:04:47;;;;;;;4.30;2.30;;;10.70;82.30;;;;;;5051556;28;20064;-59
2022/02/27 11:07:13;;;;;;;6.13;2.72;;;10.70;83.20;;;;;;5043454;28;20509;-60
2022/02/27 11:09:39;;;;;;;5.82;2.30;;;10.60;83.10;;;;;;5040116;28;20030;-59
2022/02/27 11:12:06;;;;;;;10.10;2.25;;;10.60;83.30;;;;;;5039890;28;20029;-60
2022/02/27 11:14:33;;;;;;;5.30;1.95;;;10.70;81.30;;;;;;5030200;28;20116;-59
2022/02/27 11:16:59;;;;;;;7.07;2.03;;;10.70;81.80;;;;;;5033933;28;20033;-60
2022/02/27 11:19:25;;;;;;;7.70;2.70;;;10.80;81.00;;;;;;5033377;28;20033;-60
2022/02/27 11:21:51;;;;;;;3.85;1.77;;;10.90;81.70;;;;;;5035142;28;20044;-60
2022/02/27 11:24:19;;;;;;;5.78;2.85;;;10.90;82.00;;;;;;5031179;28;20055;-60
2022/02/27 11:26:44;;;;;;;6.47;2.95;;;11.10;82.30;;;;;;5032896;28;20030;-60
2022/02/27 11:29:10;;;;;;;5.82;2.88;;;11.10;81.90;;;;;;5033722;28;20067;-60
2022/02/27 11:31:40;;;;;;;4.88;2.40;;;11.10;82.50;;;;;;5016443;28;20804;-59
2022/02/27 11:34:16;;;;;;;4.05;2.05;;;11.10;82.00;;;;;;5046851;28;20021;-60
2022/02/27 11:54:17;;;;;;;8.23;2.42;;;11.30;80.80;;;;;;5034303;28;20056;-62
2022/02/27 12:10:11;;;;;;;2.13;1.45;;;10.50;63.60;;;;;;5030848;28;20080;-66
2022/02/27 12:22:54;;;;;;;4.53;2.45;;;9.80;58.00;;;;;;5028981;28;20041;-65
2022/02/27 12:25:36;;;;;;;4.95;2.90;;;9.60;57.60;;;;;;5028658;28;20045;-64
2022/02/27 12:28:02;;;;;;;3.28;2.05;;;9.10;54.90;;;;;;5029188;28;20037;-65
2022/02/27 12:30:29;;;;;;;4.22;2.33;;;9.40;58.30;;;;;;5028072;28;20036;-65
2022/02/27 12:33:10;;;;;;;4.78;3.22;;;9.60;56.60;;;;;;5028131;28;20045;-65
2022/02/27 12:35:40;;;;;;;5.88;2.95;;;9.50;54.70;;;;;;5011788;28;20037;-65
2022/02/27 12:38:09;;;;;;;5.10;2.60;;;9.40;56.50;;;;;;5029253;28;20547;-65
2022/02/27 12:40:35;;;;;;;2.23;0.57;;;9.40;55.00;;;;;;5011748;28;20854;-64
2022/02/27 12:43:06;;;;;;;4.78;2.05;;;9.30;55.10;;;;;;5029652;28;20108;-64
2022/02/27 12:45:34;;;;;;;5.05;2.47;;;9.40;55.70;;;;;;5012404;28;20143;-64
2022/02/27 12:48:12;;;;;;;6.50;3.33;;;9.50;54.90;;;;;;5031689;28;20032;-65
2022/02/27 12:50:43;;;;;;;7.70;3.03;;;9.40;54.20;;;;;;5040757;28;20496;-65
2022/02/27 12:53:10;;;;;;;6.25;3.03;;;9.20;53.80;;;;;;5039715;28;20041;-65
2022/02/27 12:55:37;;;;;;;4.75;2.35;;;9.10;55.20;;;;;;5040393;28;20039;-65
2022/02/27 12:58:05;;;;;;;4.30;2.40;;;9.30;55.80;;;;;;5037102;28;20147;-64
2022/02/27 13:00:32;;;;;;;5.32;2.58;;;9.60;54.70;;;;;;5030524;28;20040;-65
2022/02/27 13:03:13;;;;;;;7.03;3.25;;;9.60;55.10;;;;;;5032195;28;20056;-65
2022/02/27 13:05:39;;;;;;;4.40;3.13;;;9.60;53.50;;;;;;5022812;28;20033;-66
2022/02/27 13:08:08;;;;;;;2.78;2.00;;;9.70;55.20;;;;;;5015009;28;20063;-65
2022/02/27 13:10:35;;;;;;;6.70;3.00;;;9.60;54.00;;;;;;5044448;28;20023;-66
2022/02/27 13:13:12;;;;;;;4.07;2.42;;;9.30;54.80;;;;;;5032657;28;20135;-65
2022/02/27 13:15:46;;;;;;;6.88;2.95;;;9.70;55.20;;;;;;5034214;28;20025;-66
2022/02/27 13:18:16;;;;;;;2.45;1.77;;;9.30;53.30;;;;;;5030711;28;20211;-65
2022/02/27 13:20:42;;;;;;;4.35;2.10;;;9.30;55.10;;;;;;5032862;28;20120;-65
2022/02/27 13:23:07;;;;;;;3.70;2.38;;;9.40;54.60;;;;;;5015817;28;20506;-65
2022/02/27 13:25:35;;;;;;;4.95;2.55;;;9.40;54.60;;;;;;5040148;28;20557;-65
2022/02/27 13:28:01;;;;;;;3.38;2.55;;;9.50;54.00;;;;;;5037685;28;20102;-65
2022/02/27 13:30:27;;;;;;;4.68;3.00;;;9.30;53.30;;;;;;5018057;28;20506;-65
2022/02/27 13:32:59;;;;;;;4.22;2.33;;;9.10;53.80;;;;;;5033706;28;20029;-66
2022/02/27 13:35:37;;;;;;;4.50;2.45;;;9.00;54.30;;;;;;5018578;28;20032;-66
2022/02/27 13:38:07;;;;;;;5.43;2.33;;;9.20;55.10;;;;;;5035479;28;20475;-65
2022/02/27 13:40:44;;;;;;;5.07;2.40;;;9.50;54.90;;;;;;5016555;28;20382;-66
2022/02/27 13:43:24;;;;;;;4.55;1.77;;;9.50;54.00;;;;;;5028026;28;20475;-65
2022/02/27 13:45:52;;;;;;;7.22;2.80;;;9.40;53.50;;;;;;5028618;28;20025;-66
2022/02/27 13:48:30;;;;;;;6.25;3.15;;;9.10;52.40;;;;;;5033278;28;20112;-65
2022/02/27 13:50:56;;;;;;;8.93;2.90;;;9.20;53.80;;;;;;5036429;28;20038;-66
2022/02/27 13:53:25;;;;;;;7.40;2.80;;;9.10;52.50;;;;;;5034430;28;20109;-66
2022/02/27 13:55:53;;;;;;;5.28;2.05;;;8.80;51.80;;;;;;5040197;28;20474;-65
2022/02/27 13:58:27;;;;;;;3.53;2.22;;;8.90;53.70;;;;;;5040396;28;20382;-66
2022/02/27 14:01:01;;;;;;;5.43;2.78;;;8.90;52.80;;;;;;5043538;28;20075;-65
2022/02/27 14:03:37;;;;;;;7.00;2.70;;;9.00;53.20;;;;;;5038369;28;20035;-65
2022/02/27 14:06:16;;;;;;;5.53;2.85;;;8.90;53.80;;;;;;5041154;28;20025;-65
2022/02/27 14:08:43;;;;;;;3.88;2.28;;;8.80;54.20;;;;;;5039673;28;20033;-65
2022/02/27 14:11:11;;;;;;;5.78;2.42;;;8.80;54.20;;;;;;5039981;28;20017;-64
2022/02/27 14:13:52;;;;;;;6.05;3.03;;;8.80;54.50;;;;;;5042942;28;20389;-65
2022/02/27 14:16:32;;;;;;;7.35;2.13;;;8.70;53.70;;;;;;5030449;28;20079;-63
2022/02/27 14:18:59;;;;;;;9.05;2.90;;;8.90;54.60;;;;;;5038858;28;20659;-66
2022/02/27 14:21:28;;;;;;;9.73;2.33;;;8.70;54.10;;;;;;5036429;28;20029;-64
2022/02/27 14:24:00;;;;;;;6.43;2.88;;;8.70;54.20;;;;;;5037621;28;20434;-63
2022/02/27 14:26:37;;;;;;;3.42;2.65;;;8.50;54.20;;;;;;5038874;28;20040;-65
2022/02/27 14:29:06;;;;;;;6.45;3.67;;;8.40;54.70;;;;;;5044249;28;20028;-64
2022/02/27 14:31:37;;;;;;;7.63;3.22;;;8.40;54.30;;;;;;5040596;28;20489;-63
2022/02/27 14:34:11;;;;;;;9.63;3.70;;;8.30;54.40;;;;;;5044823;28;20078;-64
2022/02/27 14:36:38;;;;;;;7.95;4.07;;;8.20;54.80;;;;;;5035531;28;20036;-65
2022/02/27 14:39:08;;;;;;;5.97;2.65;;;8.20;55.60;;;;;;5022101;28;20053;-64
2022/02/27 14:41:34;;;;;;;8.50;3.33;;;8.20;55.90;;;;;;5040725;28;20037;-65
2022/02/27 14:44:00;;;;;;;8.30;3.80;;;8.50;55.40;;;;;;5035058;28;20067;-63
2022/02/27 14:46:26;;;;;;;4.57;2.47;;;8.30;54.80;;;;;;5041942;28;20040;-61
2022/02/27 14:48:52;;;;;;;7.07;3.42;;;8.40;55.10;;;;;;5037163;28;20065;-62
2022/02/27 14:51:18;;;;;;;5.68;2.40;;;8.30;54.90;;;;;;5041973;28;20056;-61
2022/02/27 14:53:44;;;;;;;7.20;3.40;;;8.20;54.90;;;;;;5038872;28;20351;-60
2022/02/27 14:56:10;;;;;;;6.80;3.55;;;7.90;54.70;;;;;;5041458;28;20095;-61
2022/02/27 14:58:36;;;;;;;8.23;4.18;;;8.00;55.20;;;;;;5039132;28;20025;-61
2022/02/27 15:01:05;;;;;;;4.97;3.03;;;8.20;55.50;;;;;;5042758;28;20502;-61
2022/02/27 15:03:31;;;;;;;5.70;3.42;;;8.00;55.00;;;;;;5037957;28;20026;-61
2022/02/27 15:05:57;;;;;;;11.82;4.25;;;8.00;55.30;;;;;;5041338;28;20381;-61
2022/02/27 15:08:24;;;;;;;6.82;3.72;;;7.90;55.80;;;;;;5033445;28;20494;-61
2022/02/27 15:10:49;;;;;;;8.70;3.30;;;7.80;55.60;;;;;;5029639;28;20025;-61
2022/02/27 15:13:15;;;;;;;9.57;3.60;;;7.60;55.50;;;;;;5039623;28;20045;-61
2022/02/27 15:15:41;;;;;;;5.90;3.47;;;7.70;55.90;;;;;;5040831;28;20061;-61
2022/02/27 15:18:07;;;;;;;6.97;4.03;;;7.60;55.30;;;;;;5036392;28;20036;-61
2022/02/27 15:20:33;;;;;;;8.40;3.15;;;7.50;55.60;;;;;;5037812;28;20082;-61
2022/02/27 15:23:01;;;;;;;9.00;3.47;;;7.70;55.60;;;;;;5030231;28;20052;-61
2022/02/27 15:25:31;;;;;;;7.15;3.30;;;7.80;56.10;;;;;;5027853;28;20493;-61
2022/02/27 15:27:57;;;;;;;7.95;3.95;;;7.70;55.60;;;;;;5013751;28;20036;-61
2022/02/27 15:30:23;;;;;;;7.32;3.40;;;7.60;56.20;;;;;;5037409;28;20022;-61
2022/02/27 15:32:49;;;;;;;5.53;3.28;;;7.90;56.60;;;;;;5035135;28;20032;-60
2022/02/27 15:35:15;;;;;;;7.28;4.43;;;7.80;56.70;;;;;;5036683;28;20026;-60
2022/02/27 15:37:40;;;;;;;6.72;2.60;;;7.50;56.50;;;;;;5040698;28;20025;-61
2022/02/27 15:40:07;;;;;;;7.45;4.30;;;7.40;56.80;;;;;;5031357;28;20397;-61
2022/02/27 15:42:33;;;;;;;10.95;4.78;;;7.40;56.40;;;;;;5041285;28;20029;-61
2022/02/27 15:44:59;;;;;;;7.65;4.22;;;7.50;56.40;;;;;;5036620;28;20059;-61
2022/02/27 15:47:25;;;;;;;5.82;3.50;;;7.40;56.00;;;;;;5039652;28;20038;-61
2022/02/27 15:49:51;;;;;;;8.75;4.10;;;7.40;57.20;;;;;;5024551;28;20085;-61
2022/02/27 15:52:17;;;;;;;9.38;4.47;;;7.20;58.00;;;;;;5028964;28;20507;-62
2022/02/27 15:54:43;;;;;;;9.02;4.32;;;7.10;57.80;;;;;;5038940;28;20171;-61
2022/02/27 15:57:10;;;;;;;11.20;4.50;;;7.20;58.20;;;;;;5039371;28;20036;-61
2022/02/27 15:59:36;;;;;;;10.70;3.65;;;7.10;58.20;;;;;;5040190;28;20051;-61
2022/02/27 16:02:02;;;;;;;10.82;5.03;;;7.00;58.60;;;;;;5037942;28;20029;-63
2022/02/27 16:04:30;;;;;;;8.90;3.92;;;6.80;58.40;;;;;;5039710;28;20617;-61
2022/02/27 16:06:56;;;;;;;10.38;4.13;;;6.90;59.90;;;;;;5031189;28;20397;-62
2022/02/27 16:09:22;;;;;;;6.30;4.05;;;7.40;59.10;;;;;;5039157;28;20028;-62
2022/02/27 16:11:47;;;;;;;8.55;5.43;;;7.50;58.30;;;;;;5040454;28;20129;-61
2022/02/27 16:14:13;;;;;;;13.05;4.85;;;7.30;58.00;;;;;;5037573;28;20036;-61
2022/02/27 16:16:39;;;;;;;9.85;3.85;;;7.10;58.10;;;;;;5042085;28;20025;-61
2022/02/27 16:19:05;;;;;;;9.15;3.28;;;7.10;58.80;;;;;;5038623;28;20405;-61
2022/02/27 16:21:32;;;;;;;11.02;4.85;;;7.00;58.50;;;;;;5028969;28;20036;-62
2022/02/27 16:23:58;;;;;;;7.90;3.35;;;7.20;57.40;;;;;;5038484;28;20025;-61
2022/02/27 16:26:24;;;;;;;8.25;3.85;;;6.70;57.40;;;;;;5022553;28;20025;-61
2022/02/27 16:28:50;;;;;;;6.60;2.90;;;6.90;58.50;;;;;;5038230;28;20059;-61
2022/02/27 16:31:16;;;;;;;6.35;3.88;;;7.00;58.40;;;;;;5032966;28;20704;-61
2022/02/27 16:33:42;;;;;;;6.80;4.30;;;6.80;57.30;;;;;;5037160;28;20076;-61
2022/02/27 16:36:08;;;;;;;7.50;4.18;;;6.80;57.80;;;;;;5036962;28;20065;-62
2022/02/27 16:38:34;;;;;;;7.07;3.85;;;6.70;57.20;;;;;;5037135;28;20028;-61
2022/02/27 16:41:00;;;;;;;7.15;4.15;;;6.50;57.10;;;;;;5039514;28;20447;-61
2022/02/27 16:43:26;;;;;;;7.20;3.65;;;6.60;57.80;;;;;;5015109;28;20026;-61
2022/02/27 16:45:52;;;;;;;4.10;2.95;;;6.80;58.10;;;;;;5020946;28;20055;-62
2022/02/27 16:48:20;;;;;;;8.73;4.20;;;7.00;58.20;;;;;;5018569;28;20021;-62
2022/02/27 16:50:46;;;;;;;6.40;3.95;;;6.90;57.90;;;;;;5038332;28;20044;-62
2022/02/27 16:53:13;;;;;;;8.57;3.15;;;6.60;58.50;;;;;;5037168;28;20045;-61
2022/02/27 16:55:39;;;;;;;8.02;3.70;;;6.50;58.90;;;;;;5038884;28;20032;-63
2022/02/27 16:58:05;;;;;;;9.32;3.90;;;6.40;58.40;;;;;;5021180;28;20124;-61
2022/02/27 17:00:30;;;;;;;7.50;3.60;;;6.60;59.30;;;;;;5043871;28;20124;-61
2022/02/27 17:02:57;;;;;;;9.10;4.35;;;6.80;58.70;;;;;;5034502;28;20029;-61
2022/02/27 17:05:22;;;;;;;7.03;4.28;;;7.00;58.30;;;;;;5034920;28;20517;-61
2022/02/27 17:07:48;;;;;;;7.63;4.20;;;6.80;58.60;;;;;;5017500;28;20691;-61
2022/02/27 17:10:14;;;;;;;7.75;3.60;;;7.00;59.10;;;;;;5038384;28;20048;-61
2022/02/27 17:12:39;;;;;;;11.95;5.03;;;7.20;58.30;;;;;;5009774;28;20440;-61
2022/02/27 17:15:05;;;;;;;6.93;3.25;;;7.20;58.50;;;;;;5021954;28;20040;-61
2022/02/27 17:17:31;;;;;;;8.43;3.22;;;7.20;58.00;;;;;;5042419;28;20076;-61
2022/02/27 17:19:57;;;;;;;6.05;3.67;;;6.60;58.50;;;;;;5040650;28;20069;-61
2022/02/27 17:22:23;;;;;;;8.23;3.55;;;6.70;58.40;;;;;;5036327;28;20028;-62
2022/02/27 17:24:48;;;;;;;9.88;2.88;;;6.40;59.20;;;;;;5022091;28;20029;-62
2022/02/27 17:27:14;;;;;;;10.38;4.03;;;6.70;59.90;;;;;;5040921;28;20036;-62
2022/02/27 17:29:39;;;;;;;8.02;3.50;;;6.80;59.10;;;;;;5034890;28;20613;-61
2022/02/27 17:32:06;;;;;;;6.45;3.60;;;7.00;59.30;;;;;;5036968;28;20033;-61
2022/02/27 17:34:32;;;;;;;11.02;3.78;;;7.40;60.20;;;;;;5013740;28;20032;-62
2022/02/27 17:36:57;;;;;;;11.05;3.97;;;7.80;59.40;;;;;;5013287;28;20033;-62
2022/02/27 17:39:23;;;;;;;11.45;3.90;;;8.00;59.40;;;;;;5029336;28;20022;-62
2022/02/27 17:41:49;;;;;;;7.32;4.03;;;8.20;59.50;;;;;;5020153;28;20029;-62
2022/02/27 17:44:15;;;;;;;6.25;3.92;;;8.30;59.30;;;;;;5028540;28;20618;-62
2022/02/27 17:46:41;;;;;;;12.50;4.72;;;8.40;59.70;;;;;;5027734;28;20061;-61
2022/02/27 17:49:07;;;;;;;9.82;3.63;;;8.40;60.60;;;;;;5020976;28;20040;-62
2022/02/27 17:51:33;;;;;;;8.95;4.28;;;8.50;60.80;;;;;;5026222;28;20026;-62
2022/02/27 17:53:59;;;;;;;13.38;4.07;;;8.50;60.80;;;;;;5022519;28;20533;-62
2022/02/27 17:56:25;;;;;;;10.52;3.72;;;8.50;62.00;;;;;;5013175;28;20123;-62
2022/02/27 17:58:51;;;;;;;8.32;3.58;;;8.60;61.80;;;;;;5026335;28;20026;-62
2022/02/27 18:01:17;;;;;;;7.93;3.92;;;8.60;61.80;;;;;;5004579;28;20025;-61
2022/02/27 18:03:42;;;;;;;9.27;3.97;;;8.60;62.20;;;;;;5008242;28;20463;-62
2022/02/27 18:06:08;;;;;;;4.63;2.95;;;8.60;62.10;;;;;;5007894;28;20032;-62
2022/02/27 18:08:34;;;;;;;10.05;4.70;;;8.60;62.50;;;;;;5023148;28;20029;-62
2022/02/27 18:10:59;;;;;;;9.23;3.75;;;8.60;62.80;;;;;;5037573;28;20047;-62
2022/02/27 18:13:26;;;;;;;9.45;3.80;;;8.70;63.10;;;;;;5023382;28;20159;-62
2022/02/27 18:15:52;;;;;;;9.15;4.00;;;8.70;63.00;;;;;;5001158;28;20029;-63
2022/02/27 18:18:18;;;;;;;5.63;3.38;;;8.70;63.40;;;;;;5023007;28;20501;-62
2022/02/27 18:20:44;;;;;;;7.93;4.15;;;8.70;63.80;;;;;;5014821;28;20498;-62
2022/02/27 18:23:10;;;;;;;7.10;3.95;;;8.70;64.40;;;;;;5017953;28;20543;-61
2022/02/27 18:25:35;;;;;;;8.80;3.53;;;8.70;64.70;;;;;;5025725;28;20029;-62
2022/02/27 18:28:01;;;;;;;5.97;3.17;;;8.70;64.80;;;;;;5024094;28;20383;-62
2022/02/27 18:30:29;;;;;;;7.10;4.03;;;8.70;64.80;;;;;;5015498;28;20028;-62
2022/02/27 18:32:55;;;;;;;6.53;3.17;;;8.70;65.10;;;;;;5029550;28;20036;-63
2022/02/27 18:35:23;;;;;;;7.70;3.58;;;8.70;65.90;;;;;;5021084;28;20021;-62
2022/02/27 18:37:49;;;;;;;11.15;3.65;;;8.70;65.80;;;;;;5025413;28;20471;-62